Time;durP1;ratioP1;P1;durP2;ratioP2;P2;SDS_P1;SDS_P2;PMS_P1;PMS_P2;Temp;Humidity;BMP_temperature;BMP_pressure;BME280_temperature;BME280_humidity;BME280_pressure;Samples;Min_cycle;Max_cycle;Signal;HPM_P1;HPM_P2
2023/10/05 00:04:39;;;;;;;8.68;2.20;;;13.20;36.20;;;;;;5063757;28;20548;-72
2023/10/05 00:07:06;;;;;;;5.97;1.90;;;13.20;37.40;;;;;;5066281;28;20403;-72
2023/10/05 00:09:31;;;;;;;8.00;2.28;;;13.20;38.30;;;;;;5069295;28;20488;-73
2023/10/05 00:11:57;;;;;;;10.20;2.43;;;13.20;38.40;;;;;;5060440;28;20486;-73
2023/10/05 00:14:26;;;;;;;12.55;2.75;;;13.20;39.60;;;;;;5067328;28;20400;-73
2023/10/05 00:16:54;;;;;;;7.72;2.05;;;13.30;39.50;;;;;;5069020;28;20494;-73
2023/10/05 00:19:21;;;;;;;7.60;2.22;;;13.20;38.60;;;;;;5069144;28;20400;-73
2023/10/05 00:21:51;;;;;;;9.40;2.05;;;13.20;39.70;;;;;;5068242;28;21034;-73
2023/10/05 00:24:37;;;;;;;9.18;2.25;;;13.20;40.50;;;;;;5069151;28;20404;-73
2023/10/05 00:27:09;;;;;;;9.82;2.47;;;13.20;40.50;;;;;;5067043;28;20408;-74
2023/10/05 00:29:57;;;;;;;6.80;1.90;;;13.20;40.30;;;;;;5068911;28;20765;-73
2023/10/05 00:32:25;;;;;;;9.13;2.53;;;13.20;40.80;;;;;;5084226;28;20411;-73
2023/10/05 00:34:55;;;;;;;9.77;2.75;;;13.20;40.10;;;;;;5068624;28;20483;-73
2023/10/05 00:37:22;;;;;;;10.20;2.40;;;13.20;41.10;;;;;;5050602;28;20407;-73
2023/10/05 00:39:49;;;;;;;8.75;2.70;;;13.20;40.80;;;;;;5067657;28;20885;-72
2023/10/05 00:42:16;;;;;;;9.20;2.40;;;13.20;41.60;;;;;;5067421;28;20506;-72
2023/10/05 00:44:43;;;;;;;6.68;1.95;;;13.20;41.50;;;;;;5068361;28;20404;-72
2023/10/05 00:47:12;;;;;;;7.00;1.90;;;13.20;41.10;;;;;;5068699;28;20440;-73
2023/10/05 00:49:45;;;;;;;9.13;2.42;;;13.10;41.10;;;;;;5068813;28;20422;-72
2023/10/05 00:52:18;;;;;;;7.25;2.05;;;13.20;42.60;;;;;;5068414;28;20404;-72
2023/10/05 00:54:48;;;;;;;8.20;2.10;;;13.10;42.80;;;;;;5067707;28;20423;-72
2023/10/05 00:57:14;;;;;;;7.95;2.00;;;13.10;43.20;;;;;;5068250;28;20431;-72
2023/10/05 00:59:42;;;;;;;7.13;1.80;;;13.10;43.20;;;;;;5057405;28;20391;-72
2023/10/05 01:02:20;;;;;;;9.35;1.83;;;13.10;43.50;;;;;;5066205;28;20435;-72
2023/10/05 01:07:18;;;;;;;6.72;1.95;;;13.10;45.20;;;;;;5066839;28;20469;-72
2023/10/05 01:14:52;;;;;;;8.57;2.53;;;13.10;45.10;;;;;;5066523;28;20824;-73
2023/10/05 01:17:27;;;;;;;7.55;1.77;;;13.10;48.50;;;;;;5066715;28;20403;-73
2023/10/05 01:19:58;;;;;;;9.33;2.30;;;13.10;47.80;;;;;;5067470;28;20416;-72
2023/10/05 01:22:49;;;;;;;10.50;2.78;;;13.10;48.30;;;;;;5067717;28;20431;-73
2023/10/05 01:25:14;;;;;;;12.57;2.80;;;13.10;48.20;;;;;;5065965;28;20414;-72
2023/10/05 01:27:44;;;;;;;12.88;2.47;;;13.10;48.60;;;;;;5068027;28;20442;-73
2023/10/05 01:30:12;;;;;;;8.90;2.15;;;13.10;47.80;;;;;;5065872;28;20408;-72
2023/10/05 01:32:40;;;;;;;11.27;2.30;;;13.10;49.70;;;;;;5067982;28;20404;-72
2023/10/05 01:35:12;;;;;;;8.02;1.90;;;13.10;49.60;;;;;;5065365;28;20893;-72
2023/10/05 01:37:41;;;;;;;9.27;2.45;;;13.10;50.60;;;;;;5066707;28;20408;-72
2023/10/05 01:40:47;;;;;;;10.13;1.98;;;13.10;51.40;;;;;;5067621;28;20407;-72
2023/10/05 01:42:59;;;;;;;9.27;2.40;;;13.10;51.70;;;;;;5059717;28;20527;-73
2023/10/05 01:45:25;;;;;;;9.05;2.03;;;13.10;52.00;;;;;;5058941;28;20866;-72
2023/10/05 01:47:52;;;;;;;9.98;2.38;;;13.10;50.40;;;;;;5066370;28;20400;-72
2023/10/05 01:50:22;;;;;;;7.00;1.70;;;13.10;52.50;;;;;;5067097;28;20750;-72
2023/10/05 01:53:07;;;;;;;7.13;1.73;;;13.10;52.50;;;;;;5065655;28;20456;-72
2023/10/05 01:55:37;;;;;;;8.93;1.90;;;13.10;52.80;;;;;;5064974;28;20400;-72
2023/10/05 01:58:25;;;;;;;10.85;2.35;;;13.10;52.90;;;;;;5060728;28;21004;-72
2023/10/05 02:00:49;;;;;;;9.68;1.80;;;13.10;53.80;;;;;;5063515;28;20427;-72
2023/10/05 02:03:17;;;;;;;8.43;2.13;;;13.10;53.90;;;;;;5066618;28;20398;-72
2023/10/05 02:05:44;;;;;;;9.60;2.10;;;13.10;53.50;;;;;;5066142;28;20917;-72
2023/10/05 02:08:12;;;;;;;10.43;2.20;;;13.10;54.20;;;;;;5066309;28;20400;-73
2023/10/05 02:10:46;;;;;;;10.15;2.30;;;13.10;54.20;;;;;;5066418;28;20396;-72
2023/10/05 02:13:12;;;;;;;7.57;1.90;;;13.10;53.80;;;;;;5064943;28;20498;-73
2023/10/05 02:15:41;;;;;;;7.47;2.00;;;13.10;54.80;;;;;;5065212;28;20758;-73
2023/10/05 02:21:09;;;;;;;8.95;2.00;;;13.20;56.20;;;;;;5064863;28;20439;-73
2023/10/05 02:23:40;;;;;;;11.93;2.30;;;13.10;56.40;;;;;;5065810;28;20411;-72
2023/10/05 02:26:34;;;;;;;9.52;1.92;;;13.20;57.10;;;;;;5066572;28;20400;-73
2023/10/05 02:28:58;;;;;;;9.83;2.23;;;13.20;56.80;;;;;;5067478;28;20489;-72
2023/10/05 02:31:28;;;;;;;10.47;2.20;;;13.20;56.80;;;;;;5066550;28;21218;-72
2023/10/05 02:33:58;;;;;;;8.90;2.08;;;13.20;56.70;;;;;;5067347;28;20400;-73
2023/10/05 02:36:26;;;;;;;8.90;1.77;;;13.20;56.50;;;;;;5066704;28;20415;-72
2023/10/05 02:38:56;;;;;;;10.85;2.40;;;13.20;56.40;;;;;;5067332;28;20408;-72
2023/10/05 02:41:38;;;;;;;9.27;2.20;;;13.20;57.00;;;;;;5066593;28;20427;-72
2023/10/05 02:47:13;;;;;;;10.90;2.30;;;13.20;56.40;;;;;;5025149;28;20448;-72
2023/10/05 02:49:44;;;;;;;8.10;2.10;;;13.20;57.10;;;;;;5064798;28;20454;-72
2023/10/05 02:52:13;;;;;;;7.13;1.90;;;13.20;57.40;;;;;;5066063;28;20939;-72
2023/10/05 02:54:43;;;;;;;8.07;2.15;;;13.10;57.20;;;;;;5066917;28;20985;-72
2023/10/05 02:57:16;;;;;;;11.15;2.17;;;13.10;57.50;;;;;;5066686;28;20797;-72
2023/10/05 02:59:43;;;;;;;10.40;2.53;;;13.10;57.50;;;;;;5065176;28;20404;-73
2023/10/05 03:02:14;;;;;;;12.55;2.60;;;13.10;57.60;;;;;;5065620;28;20846;-72
2023/10/05 03:04:58;;;;;;;12.05;2.45;;;13.00;58.10;;;;;;5069754;28;20780;-71
2023/10/05 03:07:25;;;;;;;10.55;3.55;;;13.00;58.30;;;;;;5070303;28;20399;-72
2023/10/05 03:09:52;;;;;;;12.13;3.55;;;13.00;58.70;;;;;;5069212;28;20806;-72
2023/10/05 03:12:21;;;;;;;11.82;3.08;;;13.00;59.10;;;;;;5070338;28;20396;-72
2023/10/05 03:14:50;;;;;;;8.48;2.83;;;13.00;59.40;;;;;;5070113;28;20392;-72
2023/10/05 03:17:19;;;;;;;9.82;2.40;;;12.90;59.60;;;;;;5068165;28;20418;-72
2023/10/05 03:19:45;;;;;;;9.73;2.40;;;12.90;60.10;;;;;;5070237;28;20404;-73
2023/10/05 03:22:14;;;;;;;10.25;2.50;;;13.00;62.00;;;;;;5069963;28;20797;-72
2023/10/05 03:24:44;;;;;;;9.85;1.92;;;13.00;62.90;;;;;;5070036;28;20429;-72
2023/10/05 03:27:14;;;;;;;8.10;2.03;;;13.00;63.10;;;;;;5070125;28;20491;-72
2023/10/05 03:29:45;;;;;;;8.88;2.15;;;13.00;64.40;;;;;;5068786;28;20491;-73
2023/10/05 03:34:39;;;;;;;11.20;2.03;;;13.10;63.80;;;;;;5058727;28;20408;-72
2023/10/05 03:37:12;;;;;;;11.23;2.38;;;13.20;64.20;;;;;;5069591;28;20396;-73
2023/10/05 03:42:25;;;;;;;12.93;2.22;;;13.20;63.50;;;;;;5069165;28;20438;-71
2023/10/05 03:45:03;;;;;;;9.53;2.13;;;13.30;62.90;;;;;;5070066;28;20404;-71
2023/10/05 03:47:30;;;;;;;10.50;2.20;;;13.40;63.60;;;;;;5069361;28;21096;-73
2023/10/05 03:49:56;;;;;;;11.43;2.10;;;13.30;62.70;;;;;;5068333;28;20773;-73
2023/10/05 03:52:23;;;;;;;10.07;2.38;;;13.30;61.80;;;;;;5069917;28;20487;-72
2023/10/05 03:54:49;;;;;;;12.32;2.53;;;13.40;61.20;;;;;;5067781;28;20408;-72
2023/10/05 03:57:16;;;;;;;12.27;2.10;;;13.40;61.20;;;;;;5069605;28;20473;-71
2023/10/05 03:59:42;;;;;;;10.60;2.20;;;13.40;61.90;;;;;;5068249;28;20850;-72
2023/10/05 04:02:09;;;;;;;9.10;2.10;;;13.40;61.30;;;;;;5069490;28;20952;-72
2023/10/05 04:04:36;;;;;;;16.60;2.70;;;13.40;61.40;;;;;;5069078;28;20414;-72
2023/10/05 04:07:03;;;;;;;10.90;2.58;;;13.40;61.00;;;;;;5067258;28;20542;-71
2023/10/05 04:09:29;;;;;;;13.93;2.58;;;13.40;61.30;;;;;;5069046;28;20400;-72
2023/10/05 04:11:56;;;;;;;11.68;2.10;;;13.40;61.50;;;;;;5068004;28;20897;-72
2023/10/05 04:14:22;;;;;;;10.50;2.28;;;13.40;61.90;;;;;;5068317;28;20482;-72
2023/10/05 04:16:49;;;;;;;11.98;2.75;;;13.40;62.00;;;;;;5068718;28;20414;-72
2023/10/05 04:19:17;;;;;;;10.50;2.15;;;13.40;62.20;;;;;;5067671;28;20434;-72
2023/10/05 04:21:44;;;;;;;10.00;2.42;;;13.50;62.80;;;;;;5067621;28;20814;-72
2023/10/05 04:24:14;;;;;;;12.23;2.35;;;13.50;62.30;;;;;;5067644;28;20400;-72
2023/10/05 04:26:44;;;;;;;13.90;2.67;;;13.50;61.50;;;;;;5067579;28;20408;-72
2023/10/05 04:29:16;;;;;;;13.00;2.65;;;13.50;61.70;;;;;;5068831;28;20808;-72
2023/10/05 04:31:48;;;;;;;11.75;2.75;;;13.50;61.70;;;;;;5068577;28;20411;-72
2023/10/05 04:34:18;;;;;;;14.18;2.55;;;13.50;61.10;;;;;;5055865;28;20522;-73
2023/10/05 04:36:46;;;;;;;13.38;2.35;;;13.50;61.10;;;;;;5068860;28;20512;-72
2023/10/05 04:39:13;;;;;;;10.75;2.15;;;13.50;61.20;;;;;;5068458;28;20395;-72
2023/10/05 04:41:49;;;;;;;10.30;2.50;;;13.50;61.10;;;;;;5068521;28;20428;-72
2023/10/05 04:44:15;;;;;;;12.55;2.70;;;13.40;61.10;;;;;;5067359;28;20761;-73
2023/10/05 04:46:47;;;;;;;15.10;2.80;;;13.40;61.40;;;;;;5068159;28;20456;-72
2023/10/05 04:49:14;;;;;;;13.00;2.38;;;13.40;61.70;;;;;;5067625;28;20412;-72
2023/10/05 04:51:41;;;;;;;9.88;2.40;;;13.40;61.80;;;;;;5068210;28;20408;-72
2023/10/05 04:54:11;;;;;;;11.50;2.57;;;13.40;61.90;;;;;;5068596;28;21137;-72
2023/10/05 04:56:43;;;;;;;9.93;2.25;;;13.40;62.30;;;;;;5068117;28;20419;-72
2023/10/05 05:01:56;;;;;;;11.95;2.50;;;13.40;63.40;;;;;;5067369;28;20436;-71
2023/10/05 05:07:09;;;;;;;10.23;2.45;;;13.50;63.90;;;;;;5064537;28;20483;-71
2023/10/05 05:09:39;;;;;;;12.23;2.55;;;13.50;63.80;;;;;;5068068;28;20415;-72
2023/10/05 05:12:09;;;;;;;14.20;3.03;;;13.50;64.20;;;;;;5061780;28;20419;-72
2023/10/05 05:14:37;;;;;;;13.55;2.83;;;13.50;64.30;;;;;;5066828;28;20458;-72
2023/10/05 05:17:06;;;;;;;11.32;2.42;;;13.60;64.40;;;;;;5067686;28;20550;-72
2023/10/05 05:19:32;;;;;;;13.05;2.67;;;13.60;64.40;;;;;;5066204;28;20492;-73
2023/10/05 05:22:02;;;;;;;15.40;2.88;;;13.60;63.80;;;;;;5067967;28;20423;-72
2023/10/05 05:24:29;;;;;;;18.40;3.25;;;13.60;63.90;;;;;;5067819;28;20400;-72
2023/10/05 05:27:00;;;;;;;16.27;3.10;;;13.70;63.60;;;;;;5067904;28;20399;-72
2023/10/05 05:29:32;;;;;;;12.45;2.38;;;13.70;63.80;;;;;;5068158;28;20411;-72
2023/10/05 05:32:06;;;;;;;12.48;2.58;;;13.70;63.70;;;;;;5067139;28;20422;-70
2023/10/05 05:34:31;;;;;;;14.90;3.03;;;13.70;64.90;;;;;;5062067;28;20411;-70
2023/10/05 05:36:58;;;;;;;13.70;2.72;;;13.80;64.20;;;;;;5067314;28;20403;-72
2023/10/05 05:39:25;;;;;;;12.80;2.92;;;13.80;64.90;;;;;;5066892;28;20415;-74
2023/10/05 05:41:59;;;;;;;11.63;2.55;;;13.80;64.60;;;;;;5062815;28;20423;-73
2023/10/05 05:44:26;;;;;;;12.32;2.70;;;13.80;63.60;;;;;;5059890;28;20422;-73
2023/10/05 05:46:55;;;;;;;15.45;3.05;;;13.90;63.50;;;;;;5067253;28;20404;-73
2023/10/05 05:49:21;;;;;;;13.82;2.88;;;13.90;63.00;;;;;;5067529;28;20407;-72
2023/10/05 05:51:47;;;;;;;11.65;2.97;;;13.90;62.80;;;;;;5060511;28;20399;-73
2023/10/05 05:54:13;;;;;;;12.07;2.90;;;13.90;63.00;;;;;;5067472;28;20404;-73
2023/10/05 05:56:42;;;;;;;14.32;2.67;;;13.90;63.00;;;;;;5067611;28;20404;-73
2023/10/05 05:59:08;;;;;;;12.18;2.92;;;13.90;63.50;;;;;;5067742;28;20494;-73
2023/10/05 06:01:35;;;;;;;14.57;3.17;;;14.00;64.30;;;;;;5067520;28;20560;-73
2023/10/05 06:04:03;;;;;;;13.40;3.08;;;14.00;64.30;;;;;;5068165;28;20970;-73
2023/10/05 06:06:29;;;;;;;14.55;3.05;;;14.00;64.10;;;;;;5065864;28;20430;-73
2023/10/05 06:08:56;;;;;;;13.52;2.78;;;14.00;64.00;;;;;;5066691;28;20889;-73
2023/10/05 06:11:23;;;;;;;13.30;3.05;;;14.10;64.10;;;;;;5066998;28;20406;-73
2023/10/05 06:13:49;;;;;;;15.18;2.70;;;14.20;64.20;;;;;;5066696;28;20755;-73
2023/10/05 06:16:15;;;;;;;14.57;3.22;;;14.20;64.20;;;;;;5067571;28;20929;-73
2023/10/05 06:18:41;;;;;;;12.63;2.60;;;14.20;64.50;;;;;;5057797;28;20414;-73
2023/10/05 06:21:06;;;;;;;14.57;3.30;;;14.30;63.90;;;;;;5063865;28;20469;-73
2023/10/05 06:23:33;;;;;;;13.07;2.60;;;14.30;64.00;;;;;;5066141;28;20396;-73
2023/10/05 06:26:00;;;;;;;14.65;2.90;;;14.30;63.50;;;;;;5065537;28;20462;-72
2023/10/05 06:28:27;;;;;;;15.50;2.97;;;14.30;63.30;;;;;;5066766;28;20399;-71
2023/10/05 06:30:53;;;;;;;15.50;3.23;;;14.40;63.60;;;;;;5048108;28;21011;-73
2023/10/05 06:33:19;;;;;;;13.27;3.03;;;14.40;63.50;;;;;;5064774;28;20483;-73
2023/10/05 06:35:48;;;;;;;15.20;2.92;;;14.40;62.50;;;;;;5066023;28;20396;-73
2023/10/05 06:38:16;;;;;;;14.67;2.93;;;14.40;63.40;;;;;;5065364;28;20408;-73
2023/10/05 06:40:42;;;;;;;16.10;2.90;;;14.40;62.90;;;;;;5070024;28;20487;-73
2023/10/05 06:43:08;;;;;;;13.68;2.95;;;14.50;63.30;;;;;;5070534;28;20481;-72
2023/10/05 06:45:35;;;;;;;16.47;2.70;;;14.50;62.40;;;;;;5052241;28;20403;-72
2023/10/05 06:48:03;;;;;;;12.65;2.78;;;14.60;63.00;;;;;;5071440;28;20422;-72
2023/10/05 06:50:29;;;;;;;15.27;2.67;;;14.50;63.10;;;;;;5071183;28;21181;-71
2023/10/05 06:52:55;;;;;;;13.70;2.63;;;14.60;63.00;;;;;;5070183;28;20419;-72
2023/10/05 06:55:23;;;;;;;15.18;2.92;;;14.60;63.10;;;;;;5069023;28;20424;-73
2023/10/05 06:57:53;;;;;;;13.00;3.22;;;14.60;62.30;;;;;;5071198;28;20474;-72
2023/10/05 07:00:22;;;;;;;13.32;2.75;;;14.70;63.00;;;;;;5071128;28;20400;-73
2023/10/05 07:02:54;;;;;;;17.27;3.25;;;14.70;62.50;;;;;;5070420;28;20447;-72
2023/10/05 07:05:20;;;;;;;16.23;2.97;;;14.70;63.20;;;;;;5069995;28;20396;-72
2023/10/05 07:07:46;;;;;;;14.90;3.23;;;14.70;64.00;;;;;;5070308;28;20968;-72
2023/10/05 07:10:14;;;;;;;13.88;3.05;;;14.70;64.20;;;;;;5069819;28;20408;-72
2023/10/05 07:12:46;;;;;;;15.15;3.10;;;14.70;63.90;;;;;;5069290;28;20905;-73
2023/10/05 07:15:17;;;;;;;13.18;2.90;;;14.70;64.90;;;;;;5058889;28;20400;-72
2023/10/05 07:17:43;;;;;;;16.55;3.35;;;14.70;65.50;;;;;;5070636;28;20412;-72
2023/10/05 07:20:12;;;;;;;13.15;3.20;;;14.70;67.40;;;;;;5069424;28;20600;-73
2023/10/05 07:22:41;;;;;;;18.70;3.75;;;14.70;68.30;;;;;;5070436;28;20810;-73
2023/10/05 07:25:08;;;;;;;15.07;3.30;;;14.70;69.30;;;;;;5069302;28;20487;-73
2023/10/05 07:27:35;;;;;;;15.38;3.30;;;14.70;69.80;;;;;;5068566;28;21022;-73
2023/10/05 07:30:05;;;;;;;15.55;4.05;;;14.70;69.80;;;;;;5070812;28;20396;-73
2023/10/05 07:32:31;;;;;;;16.75;3.58;;;14.70;70.60;;;;;;5070560;28;20589;-73
2023/10/05 07:34:57;;;;;;;17.50;3.33;;;14.70;72.00;;;;;;5070469;28;20446;-73
2023/10/05 07:37:23;;;;;;;15.77;3.07;;;14.70;70.40;;;;;;5070383;28;20487;-73
2023/10/05 07:39:51;;;;;;;17.27;3.85;;;14.70;72.20;;;;;;5069703;28;20474;-73
2023/10/05 07:42:17;;;;;;;15.90;3.63;;;14.70;72.10;;;;;;5068355;28;20457;-73
2023/10/05 07:44:43;;;;;;;15.07;3.40;;;14.70;73.30;;;;;;5069007;28;21022;-73
2023/10/05 07:47:13;;;;;;;17.35;4.28;;;14.70;74.20;;;;;;5069863;28;20403;-73
2023/10/05 07:49:41;;;;;;;12.63;3.58;;;14.70;75.00;;;;;;5070529;28;20400;-73
2023/10/05 07:52:10;;;;;;;14.25;3.53;;;14.60;75.50;;;;;;5068143;28;20404;-73
2023/10/05 07:54:38;;;;;;;18.30;3.95;;;14.60;76.40;;;;;;5070342;28;20392;-73
2023/10/05 07:57:09;;;;;;;19.83;4.05;;;14.60;77.20;;;;;;5070069;28;20972;-74
2023/10/05 07:59:42;;;;;;;14.23;3.70;;;14.60;77.80;;;;;;5069721;28;20501;-73
2023/10/05 08:02:10;;;;;;;20.15;3.78;;;14.60;77.80;;;;;;5057675;28;20416;-73
2023/10/05 08:04:35;;;;;;;15.07;3.35;;;14.70;78.20;;;;;;5069650;28;20408;-74
2023/10/05 08:07:02;;;;;;;12.93;3.25;;;14.60;77.60;;;;;;5069434;28;20399;-72
2023/10/05 08:09:29;;;;;;;12.48;3.15;;;14.60;77.10;;;;;;5069629;28;20404;-72
2023/10/05 08:11:56;;;;;;;15.03;3.47;;;14.60;78.80;;;;;;5069733;28;20404;-72
2023/10/05 08:14:24;;;;;;;15.87;3.87;;;14.60;79.00;;;;;;5069121;28;20402;-72
2023/10/05 08:16:57;;;;;;;18.23;4.30;;;14.60;79.20;;;;;;5069231;28;20404;-71
2023/10/05 08:19:26;;;;;;;16.30;3.63;;;14.50;80.10;;;;;;5069470;28;20418;-72
2023/10/05 08:21:53;;;;;;;12.02;3.70;;;14.50;80.20;;;;;;5069050;28;20828;-72
2023/10/05 08:24:20;;;;;;;15.90;3.85;;;14.60;81.60;;;;;;5068028;28;20878;-71
2023/10/05 08:26:49;;;;;;;12.75;3.58;;;14.50;81.90;;;;;;5069206;28;20450;-71
2023/10/05 08:29:17;;;;;;;11.20;3.03;;;14.60;82.80;;;;;;5068954;28;20400;-71
2023/10/05 08:31:44;;;;;;;12.43;3.40;;;14.50;82.10;;;;;;5069421;28;20449;-71
2023/10/05 08:34:11;;;;;;;12.68;3.58;;;14.50;83.00;;;;;;5067966;28;20414;-72
2023/10/05 08:36:38;;;;;;;15.48;3.58;;;14.60;83.60;;;;;;5069068;28;20495;-72
2023/10/05 08:39:04;;;;;;;14.70;3.93;;;14.60;84.10;;;;;;5067187;28;20491;-72
2023/10/05 08:41:35;;;;;;;14.18;3.95;;;14.70;84.50;;;;;;5069045;28;20921;-72
2023/10/05 08:44:15;;;;;;;16.43;4.40;;;14.80;86.30;;;;;;5068668;28;20407;-72
2023/10/05 08:46:42;;;;;;;14.65;3.90;;;14.90;87.10;;;;;;5068853;28;20404;-71
2023/10/05 08:49:10;;;;;;;14.25;3.78;;;15.00;86.50;;;;;;5068489;28;20403;-72
2023/10/05 08:51:39;;;;;;;13.02;3.60;;;15.10;86.30;;;;;;5068140;28;20449;-72
2023/10/05 08:54:09;;;;;;;14.50;3.45;;;15.10;85.00;;;;;;5057276;28;20493;-72
2023/10/05 08:56:39;;;;;;;10.90;3.25;;;15.10;85.00;;;;;;5068605;28;20765;-72
2023/10/05 08:59:07;;;;;;;10.40;2.90;;;15.20;85.10;;;;;;5069058;28;20400;-72
2023/10/05 09:01:35;;;;;;;11.60;3.00;;;15.20;85.50;;;;;;5067610;28;20420;-72
2023/10/05 09:06:49;;;;;;;10.32;3.03;;;15.30;86.50;;;;;;5068396;28;20418;-72
2023/10/05 09:09:39;;;;;;;10.20;3.00;;;15.40;84.70;;;;;;5068271;28;20561;-72
2023/10/05 09:12:34;;;;;;;8.98;2.60;;;15.40;84.80;;;;;;5068269;28;20404;-72
2023/10/05 09:15:21;;;;;;;7.43;2.60;;;15.50;86.80;;;;;;5068359;28;20408;-72
2023/10/05 09:17:58;;;;;;;11.80;2.65;;;15.80;89.40;;;;;;5067598;28;20415;-73
2023/10/05 09:20:30;;;;;;;8.52;2.75;;;16.10;87.10;;;;;;5066731;28;20921;-72
2023/10/05 09:22:57;;;;;;;7.28;2.30;;;16.30;87.20;;;;;;5067521;28;20546;-72
2023/10/05 09:25:27;;;;;;;7.80;2.22;;;16.70;87.60;;;;;;5067953;28;20407;-72
2023/10/05 09:27:56;;;;;;;7.63;1.98;;;16.90;82.60;;;;;;5067713;28;20399;-72
2023/10/05 09:30:22;;;;;;;8.77;2.15;;;16.90;76.20;;;;;;5068163;28;20399;-73
2023/10/05 09:32:48;;;;;;;8.05;2.38;;;16.90;74.50;;;;;;5067551;28;20467;-73
2023/10/05 09:35:27;;;;;;;8.18;1.90;;;16.80;74.20;;;;;;5068219;28;20404;-73
2023/10/05 09:37:57;;;;;;;12.93;2.60;;;16.80;74.30;;;;;;5066145;28;20430;-73
2023/10/05 09:40:23;;;;;;;8.23;1.80;;;16.90;75.50;;;;;;5067704;28;20511;-73
2023/10/05 09:42:53;;;;;;;12.50;2.35;;;17.00;74.00;;;;;;5066769;28;20775;-72
2023/10/05 09:45:22;;;;;;;9.27;2.03;;;17.00;72.60;;;;;;5068079;28;20410;-72
2023/10/05 09:47:51;;;;;;;8.65;1.65;;;17.00;70.90;;;;;;5056747;28;20408;-72
2023/10/05 09:50:21;;;;;;;10.00;2.15;;;16.90;70.90;;;;;;5067755;28;20458;-72
2023/10/05 09:52:48;;;;;;;8.02;2.00;;;16.90;71.90;;;;;;5067717;28;20453;-72
2023/10/05 09:55:17;;;;;;;9.90;2.15;;;17.10;73.10;;;;;;5066550;28;20469;-72
2023/10/05 09:57:52;;;;;;;9.35;2.17;;;17.10;70.50;;;;;;5067311;28;20400;-73
2023/10/05 10:03:02;;;;;;;9.80;2.00;;;17.00;66.20;;;;;;5067266;28;20438;-73
2023/10/05 10:06:07;;;;;;;10.05;2.33;;;16.80;66.20;;;;;;5049683;28;20936;-72
2023/10/05 10:08:35;;;;;;;9.32;2.10;;;16.70;66.90;;;;;;5062961;28;20439;-72
2023/10/05 10:11:09;;;;;;;10.32;2.03;;;16.50;68.10;;;;;;5066572;28;20400;-73
2023/10/05 10:13:39;;;;;;;10.07;2.00;;;16.40;70.80;;;;;;5068166;28;20449;-72
2023/10/05 10:16:16;;;;;;;11.27;2.27;;;16.50;73.80;;;;;;5071231;28;20465;-72
2023/10/05 10:18:44;;;;;;;9.10;2.00;;;16.60;76.40;;;;;;5061923;28;20447;-72
2023/10/05 10:21:24;;;;;;;7.75;1.65;;;16.70;74.80;;;;;;5053045;28;20411;-72
2023/10/05 10:24:07;;;;;;;6.70;1.50;;;16.70;73.10;;;;;;5070816;28;21120;-72
2023/10/05 10:26:41;;;;;;;5.28;1.33;;;16.70;72.40;;;;;;5083078;28;20492;-72
2023/10/05 10:29:11;;;;;;;6.47;1.40;;;16.80;72.10;;;;;;5065824;28;20419;-72
2023/10/05 10:31:42;;;;;;;5.45;1.50;;;16.90;71.30;;;;;;5071579;28;20861;-72
2023/10/05 10:34:43;;;;;;;6.50;1.45;;;17.00;73.40;;;;;;5070116;28;20406;-72
2023/10/05 10:37:10;;;;;;;7.95;1.50;;;17.50;76.60;;;;;;5070122;28;20420;-72
2023/10/05 10:39:37;;;;;;;5.20;1.00;;;17.80;72.20;;;;;;5069874;28;20861;-72
2023/10/05 10:42:07;;;;;;;6.93;1.10;;;18.10;68.80;;;;;;5069738;28;20435;-73
2023/10/05 10:44:57;;;;;;;5.18;0.75;;;18.10;63.30;;;;;;5070697;28;20399;-73
2023/10/05 10:47:26;;;;;;;5.38;0.80;;;18.30;68.30;;;;;;5070980;28;20407;-73
2023/10/05 10:49:59;;;;;;;4.88;0.77;;;19.00;60.60;;;;;;5070935;28;20797;-73
2023/10/05 10:52:25;;;;;;;4.00;0.80;;;19.00;43.80;;;;;;5069431;28;21051;-73
2023/10/05 10:54:59;;;;;;;4.07;0.70;;;19.50;48.40;;;;;;5070670;28;20466;-73
2023/10/05 10:57:25;;;;;;;4.85;0.95;;;19.70;40.40;;;;;;5059785;28;20419;-73
2023/10/05 11:02:49;;;;;;;5.07;0.75;;;19.40;36.20;;;;;;5038790;28;20973;-73
2023/10/05 11:05:15;;;;;;;4.20;0.70;;;19.30;37.20;;;;;;5069496;28;20403;-73
2023/10/05 11:07:43;;;;;;;5.23;0.83;;;19.10;35.30;;;;;;5069086;28;20404;-73
2023/10/05 11:10:18;;;;;;;6.10;0.82;;;18.90;36.00;;;;;;5070826;28;20436;-72
2023/10/05 11:12:53;;;;;;;4.88;0.95;;;18.70;38.60;;;;;;5070524;28;20404;-72
2023/10/05 11:15:22;;;;;;;8.35;0.93;;;18.50;35.70;;;;;;5070674;28;20921;-72
2023/10/05 11:17:51;;;;;;;4.38;0.85;;;18.20;37.90;;;;;;5070298;28;20497;-73
2023/10/05 11:20:25;;;;;;;3.92;0.60;;;18.00;42.40;;;;;;5069246;28;20408;-73
2023/10/05 11:22:55;;;;;;;4.32;0.30;;;17.80;43.00;;;;;;5070304;28;20431;-73
2023/10/05 11:25:32;;;;;;;3.53;0.47;;;17.60;45.00;;;;;;5070056;28;20743;-73
2023/10/05 11:27:59;;;;;;;3.83;0.70;;;17.60;45.60;;;;;;5070144;28;20415;-73
2023/10/05 11:30:41;;;;;;;5.65;0.52;;;17.50;46.30;;;;;;5068979;28;20494;-72
2023/10/05 11:33:15;;;;;;;4.78;0.50;;;17.40;45.40;;;;;;5069860;28;20959;-73
2023/10/05 11:35:55;;;;;;;5.43;0.80;;;17.40;45.10;;;;;;5069543;28;20461;-73
2023/10/05 11:38:26;;;;;;;4.93;0.60;;;17.30;46.30;;;;;;5070290;28;20878;-73
2023/10/05 11:40:56;;;;;;;4.40;0.50;;;17.20;45.80;;;;;;5069767;28;20411;-73
2023/10/05 11:43:22;;;;;;;6.70;1.13;;;17.10;46.80;;;;;;5069482;28;20518;-73
2023/10/05 11:48:50;;;;;;;5.32;1.10;;;16.90;51.00;;;;;;5070011;28;20992;-73
2023/10/05 11:51:19;;;;;;;7.68;1.25;;;16.80;52.50;;;;;;5070361;28;20494;-73
2023/10/05 11:53:45;;;;;;;7.20;1.40;;;16.70;54.00;;;;;;5069452;28;20403;-73
2023/10/05 11:56:12;;;;;;;6.93;1.20;;;16.60;56.40;;;;;;5052229;28;20423;-72
2023/10/05 11:58:40;;;;;;;6.20;1.27;;;16.40;58.20;;;;;;5067932;28;20443;-73
2023/10/05 12:01:07;;;;;;;6.05;1.02;;;16.20;59.40;;;;;;5051948;28;20419;-73
2023/10/05 12:03:33;;;;;;;2.95;0.90;;;16.10;61.10;;;;;;5068427;28;20431;-73
2023/10/05 12:06:00;;;;;;;5.20;0.90;;;15.90;63.60;;;;;;5070054;28;20773;-73
2023/10/05 12:08:30;;;;;;;4.75;1.30;;;15.80;65.70;;;;;;5068309;28;20910;-73
2023/10/05 12:10:59;;;;;;;4.82;1.27;;;15.70;67.00;;;;;;5069891;28;20493;-73
2023/10/05 12:13:29;;;;;;;6.10;1.60;;;15.70;69.80;;;;;;5056574;28;20408;-73
2023/10/05 12:15:55;;;;;;;5.03;1.30;;;15.70;72.30;;;;;;5068224;28;20411;-73
2023/10/05 12:18:22;;;;;;;4.55;1.50;;;15.80;74.80;;;;;;5058631;28;20407;-73
2023/10/05 12:20:50;;;;;;;5.03;1.42;;;15.90;75.30;;;;;;5068450;28;20420;-73
2023/10/05 12:23:17;;;;;;;5.80;1.47;;;16.00;76.50;;;;;;5068688;28;20496;-73
2023/10/05 12:25:47;;;;;;;6.13;1.70;;;16.10;76.10;;;;;;5068971;28;20410;-73
2023/10/05 12:28:14;;;;;;;6.30;1.55;;;16.20;77.30;;;;;;5061972;28;20416;-73
2023/10/05 12:30:44;;;;;;;5.65;1.70;;;16.40;78.90;;;;;;5065329;28;20396;-73
2023/10/05 12:33:11;;;;;;;6.93;1.33;;;16.70;78.00;;;;;;5059717;28;20936;-72
2023/10/05 12:35:37;;;;;;;6.05;1.67;;;16.90;76.30;;;;;;5067501;28;20404;-73
2023/10/05 12:38:06;;;;;;;4.45;1.15;;;17.30;79.10;;;;;;5069286;28;20403;-73
2023/10/05 12:40:33;;;;;;;4.53;1.15;;;18.00;76.70;;;;;;5068962;28;20805;-73
2023/10/05 12:43:00;;;;;;;6.18;1.13;;;18.20;71.90;;;;;;5068605;28;20431;-73
2023/10/05 12:45:26;;;;;;;4.28;1.00;;;18.70;69.30;;;;;;5068627;28;20824;-74
2023/10/05 12:47:54;;;;;;;4.07;0.93;;;18.80;60.00;;;;;;5061212;28;20414;-73
2023/10/05 12:50:22;;;;;;;5.25;0.80;;;18.60;58.00;;;;;;5066926;28;20403;-73
2023/10/05 12:52:51;;;;;;;4.63;0.60;;;19.20;64.10;;;;;;5069067;28;20408;-73
2023/10/05 12:55:22;;;;;;;3.30;0.40;;;20.00;58.50;;;;;;5067109;28;20440;-74
2023/10/05 12:57:50;;;;;;;1.92;0.40;;;20.40;48.00;;;;;;5068836;28;20407;-74
2023/10/05 13:00:31;;;;;;;4.07;0.70;;;20.30;34.00;;;;;;5056511;28;20408;-73
2023/10/05 13:03:00;;;;;;;2.10;0.45;;;19.70;29.20;;;;;;5066649;28;20435;-73
2023/10/05 13:05:31;;;;;;;2.78;0.63;;;19.20;33.20;;;;;;5067765;28;20495;-73
2023/10/05 13:08:01;;;;;;;3.83;0.50;;;18.80;35.20;;;;;;5057831;28;20401;-73
2023/10/05 13:10:30;;;;;;;3.78;0.60;;;18.50;39.60;;;;;;5067083;28;20406;-73
2023/10/05 13:13:04;;;;;;;3.53;0.60;;;18.20;41.10;;;;;;5068047;28;20994;-72
2023/10/05 13:15:34;;;;;;;2.20;0.40;;;18.00;44.80;;;;;;5067427;28;20407;-73
2023/10/05 13:18:15;;;;;;;3.17;0.50;;;17.80;44.30;;;;;;5067855;28;20399;-73
2023/10/05 13:20:43;;;;;;;3.72;0.50;;;17.70;46.20;;;;;;5068333;28;20407;-73
2023/10/05 13:23:11;;;;;;;2.95;0.50;;;17.60;48.80;;;;;;5067437;28;20491;-73
2023/10/05 13:25:45;;;;;;;4.43;0.60;;;17.70;50.10;;;;;;5066876;28;20454;-73
2023/10/05 13:28:15;;;;;;;5.20;0.70;;;17.70;49.30;;;;;;5067945;28;20403;-73
2023/10/05 13:30:50;;;;;;;3.70;0.82;;;17.70;48.90;;;;;;5068250;28;20404;-73
2023/10/05 13:33:22;;;;;;;3.47;0.60;;;17.70;51.00;;;;;;5058313;28;20833;-73